WetterOnline ( http://www.wetteronline.de )

Wetter aktuell München

Aktuelles Wetter: München/Stadt (535m)

6-stündlich | Neueste Meldungen
Ortszeit Temperatur Wetter
Mi, 20.02. 13:00 9.0° C bedeckt
Mi, 20.02. 7:00 5.5° C bedeckt
Mi, 20.02. 1:00 6.2° C bedeckt
Di, 19.02. 19:00 9.5° C wolkig
Di, 19.02. 13:00 12.1° C bewölkt
Di, 19.02. 7:00 1.2° C fast wolkenlos
Di, 19.02. 1:00 3.0° C wolkenlos
Mo, 18.02. 19:00 7.4° C wolkenlos
Ortszeit Temperatur Wetter
Mi, 20.02. 13:30 9.1° C bedeckt
Mi, 20.02. 13:20 9.1° C bedeckt
Mi, 20.02. 13:10 9.0° C bewölkt
Mi, 20.02. 13:00 9.0° C bedeckt
Mi, 20.02. 12:50 9.0° C bedeckt
Mi, 20.02. 12:40 8.8° C bewölkt
Mi, 20.02. 12:30 9.3° C bewölkt
Mi, 20.02. 12:00 9.1° C -
Mi, 20.02. 11:30 8.5° C bedeckt
Mi, 20.02. 11:00 8.0° C bedeckt
Mi, 20.02. 10:30 7.5° C bedeckt
Ortszeit Relative Feuchte Sichtweite
Mi, 20.02. 13:00 64% 22 km
Mi, 20.02. 7:00 83% 23 km
Mi, 20.02. 1:00 80% 26 km
Di, 19.02. 19:00 59% 45 km
Di, 19.02. 13:00 43% 45 km
Di, 19.02. 7:00 76% 35 km
Di, 19.02. 1:00 61% 50 km
Mo, 18.02. 19:00 56% 45 km
Ortszeit Relative Feuchte Sichtweite
Mi, 20.02. 13:30 66% 23 km
Mi, 20.02. 13:20 66% -
Mi, 20.02. 13:10 65% -
Mi, 20.02. 13:00 64% 22 km
Mi, 20.02. 12:50 64% -
Mi, 20.02. 12:40 65% -
Mi, 20.02. 12:30 63% 24 km
Mi, 20.02. 12:00 66% 21 km
Mi, 20.02. 11:30 69% 19 km
Mi, 20.02. 11:00 70% 22 km
Mi, 20.02. 10:30 72% 19 km
Ortszeit Niederschlagsmenge Niederschlagsart
Mi, 20.02. 13:00 0.0 l/m2 in 6 Std. -
Mi, 20.02. 7:00 0.1 l/m2 in 12 Std. Regen
Mi, 20.02. 1:00 0.1 l/m2 in 6 Std. Regen
Di, 19.02. 19:00 0.0 l/m2 in 12 Std. -
Di, 19.02. 13:00 0.0 l/m2 in 6 Std. -
Di, 19.02. 7:00 0.0 l/m2 in 12 Std. -
Di, 19.02. 1:00 0.0 l/m2 in 6 Std. -
Mo, 18.02. 19:00 0.0 l/m2 in 12 Std. -
Ortszeit Niederschlagsmenge Niederschlagsart
Mi, 20.02. 13:30 0.0 l/m2 in 1 Std. -
Mi, 20.02. 13:20 keine Meldung -
Mi, 20.02. 13:10 keine Meldung -
Mi, 20.02. 13:00 0.0 l/m2 in 1 Std. -
Mi, 20.02. 12:50 keine Meldung -
Mi, 20.02. 12:40 keine Meldung -
Mi, 20.02. 12:30 0.0 l/m2 in 1 Std. -
Mi, 20.02. 12:00 0.0 l/m2 in 1 Std. -
Mi, 20.02. 11:30 0.0 l/m2 in 1 Std. -
Mi, 20.02. 11:00 0.0 l/m2 in 1 Std. -
Mi, 20.02. 10:30 0.0 l/m2 in 1 Std. -
Ortszeit Stärke Spitze Richtung
km/h Bft. km/h Grad Sektor
Mi, 20.02. 13:00 9 2 20 300° NW
Mi, 20.02. 7:00 2 1 9 20° N
Mi, 20.02. 1:00 4 1 22 10° N
Di, 19.02. 19:00 9 2 35 260° W
Di, 19.02. 13:00 17 3 37 290° W
Di, 19.02. 7:00 6 1 17 220° SW
Di, 19.02. 1:00 9 2 13 220° SW
Mo, 18.02. 19:00 7 2 14 100° O
Ortszeit Stärke Spitze Richtung
km/h Bft. km/h Grad Sektor
Mi, 20.02. 13:30 9 2 20 330° NW
Mi, 20.02. 13:20 9 2 - 330° NW
Mi, 20.02. 13:10 9 2 - 310° NW
Mi, 20.02. 13:00 9 2 20 300° NW
Mi, 20.02. 12:50 9 2 - 300° NW
Mi, 20.02. 12:40 7 2 - 300° NW
Mi, 20.02. 12:30 9 2 17 320° NW
Mi, 20.02. 12:00 6 1 11 240° SW
Mi, 20.02. 11:30 6 1 9 280° W
Mi, 20.02. 11:00 4 1 11 330° NW
Mi, 20.02. 10:30 6 1 11 260° W
Ortszeit Untergrenze Bedeckung Gattung
total tief tief mittel hoch
Mi, 20.02. 13:00 750 m 8/8 8/8 - - -
Mi, 20.02. 7:00 510 m 8/8 8/8 - - -
Mi, 20.02. 1:00 660 m 8/8 8/8 - - -
Di, 19.02. 19:00 1800 m 7/8 1/8 - - -
Di, 19.02. 13:00 1500 m 7/8 7/8 - - -
Di, 19.02. 7:00 10500 m 2/8 0/8 - - -
Di, 19.02. 1:00 - 0/8 0/8 - - -
Mo, 18.02. 19:00 - 0/8 0/8 - - -
Ortszeit Bedeckungsgrad in Achtel und Wolkenuntergrenze
Mi, 20.02. 13:30 6(870m) 8(990m)
Mi, 20.02. 13:20 6(870m) 8(990m)
Mi, 20.02. 13:10 7(840m)
Mi, 20.02. 13:00 7(750m) 8(960m)
Mi, 20.02. 12:50 7(750m) 8(960m)
Mi, 20.02. 12:40 7(780m) 7(990m) 8(4800m)
Mi, 20.02. 12:30 3(660m) 7(990m) 8(4500m)
Mi, 20.02. 12:00 -
Mi, 20.02. 11:30 3(630m) 8(990m) 8(1500m)
Mi, 20.02. 11:00 8(990m) 8(1500m)
Mi, 20.02. 10:30 8(990m) 8(1500m)
Ortszeit Luftdruck NN (hPa) Tendenz (hPa in 3 Std.)
Mi, 20.02. 13:00 1025 + 0,6
Mi, 20.02. 7:00 1025 + 0,6
Mi, 20.02. 1:00 1024 + 0,5
Di, 19.02. 19:00 1021 + 0,2
Di, 19.02. 13:00 1021 - 0,2
Di, 19.02. 7:00 1023 + 1,0
Di, 19.02. 1:00 1021 + 0,4
Mo, 18.02. 19:00 1020 - 0,3
Ortszeit Luftdruck NN (hPa) Tendenz (hPa in 3 Std.)
Mi, 20.02. 13:30 1025 + 0,2
Mi, 20.02. 13:20 1025 keine Meldung
Mi, 20.02. 13:10 1025 keine Meldung
Mi, 20.02. 13:00 1025 + 0,6
Mi, 20.02. 12:50 1025 keine Meldung
Mi, 20.02. 12:40 1025 keine Meldung
Mi, 20.02. 12:30 1025 + 0,5
Mi, 20.02. 12:00 1025 + 0,6
Mi, 20.02. 11:30 1025 + 0,8
Mi, 20.02. 11:00 1026 + 1,0
Mi, 20.02. 10:30 1026 + 1,3
Ortszeit Schneehöhe (cm)
Mi, 20.02. 13:00 0
Mi, 20.02. 7:00 0
Mi, 20.02. 1:00 0
Di, 19.02. 19:00 0
Di, 19.02. 13:00 0
Di, 19.02. 7:00 0
Di, 19.02. 1:00 0
Mo, 18.02. 19:00 0
Ortszeit Schneehöhe (cm)
Mi, 20.02. 13:30 0
Mi, 20.02. 13:20 0
Mi, 20.02. 13:10 0
Mi, 20.02. 13:00 0
Mi, 20.02. 12:50 0
Mi, 20.02. 12:40 0
Mi, 20.02. 12:30 0
Mi, 20.02. 12:00 0
Mi, 20.02. 11:30 0
Mi, 20.02. 11:00 0
Mi, 20.02. 10:30 0
Link zu dieser Seite / Seite empfehlen

Das Wetter in ...